createdAt,value
2018-03-25T00:01:25.355Z,72.30
2018-03-25T00:03:53.764Z,72.70
2018-03-25T00:06:22.264Z,72.70
2018-03-25T00:08:49.872Z,72.70
2018-03-25T00:11:17.573Z,72.60
2018-03-25T00:13:45.239Z,72.10
2018-03-25T00:16:12.882Z,72.00
2018-03-25T00:18:40.491Z,72.90
2018-03-25T00:21:08.110Z,73.10
2018-03-25T00:23:35.776Z,72.80
2018-03-25T00:26:03.384Z,74.30
2018-03-25T00:28:31.053Z,74.00
2018-03-25T00:30:58.681Z,73.70
2018-03-25T00:33:26.488Z,74.10
2018-03-25T00:35:54.126Z,73.80
2018-03-25T00:38:22.508Z,73.70
2018-03-25T00:40:50.944Z,73.90
2018-03-25T00:43:18.569Z,73.80
2018-03-25T00:45:46.941Z,73.80
2018-03-25T00:48:15.340Z,73.90
2018-03-25T00:50:42.953Z,73.80
2018-03-25T00:53:10.585Z,74.60
2018-03-25T00:55:38.355Z,74.20
2018-03-25T00:58:06.018Z,74.40
2018-03-25T01:00:33.675Z,73.80
2018-03-25T01:03:02.055Z,74.60
2018-03-25T01:05:30.441Z,75.40
2018-03-25T01:07:58.067Z,75.40
2018-03-25T01:10:25.713Z,75.20
2018-03-25T01:12:53.312Z,74.90
2018-03-25T01:15:21.701Z,75.10
2018-03-25T01:17:50.194Z,74.50
2018-03-25T01:20:18.595Z,75.30
2018-03-25T01:22:46.224Z,75.30
2018-03-25T01:25:13.823Z,75.50
2018-03-25T01:27:41.719Z,76.00
2018-03-25T01:30:09.356Z,75.30
2018-03-25T01:32:37.014Z,75.20
2018-03-25T01:35:06.259Z,75.40
2018-03-25T01:37:33.876Z,75.40
2018-03-25T01:40:01.512Z,75.20
2018-03-25T01:42:29.114Z,74.90
2018-03-25T01:44:57.517Z,74.80
2018-03-25T01:47:25.153Z,74.80
2018-03-25T01:49:53.782Z,74.40
2018-03-25T01:52:21.422Z,74.40
2018-03-25T01:54:49.800Z,74.90
2018-03-25T01:57:18.214Z,75.00
2018-03-25T01:59:45.820Z,75.00
2018-03-25T02:02:13.476Z,75.90
2018-03-25T02:04:41.078Z,76.40
2018-03-25T02:07:09.498Z,77.60
2018-03-25T02:09:37.149Z,77.40
2018-03-25T02:12:04.937Z,77.50
2018-03-25T02:14:32.558Z,77.90
2018-03-25T02:17:00.945Z,78.80
2018-03-25T02:19:29.407Z,78.60
2018-03-25T02:21:57.025Z,78.60
2018-03-25T02:24:24.672Z,78.60
2018-03-25T02:26:53.168Z,77.70
2018-03-25T02:29:20.789Z,77.60
2018-03-25T02:31:48.420Z,77.40
2018-03-25T02:34:16.076Z,78.00
2018-03-25T02:36:44.458Z,78.20
2018-03-25T02:39:12.085Z,78.10
2018-03-25T02:41:41.210Z,77.90
2018-03-25T02:44:09.595Z,78.00
2018-03-25T02:46:38.073Z,78.10
2018-03-25T02:49:06.487Z,78.20
2018-03-25T02:51:34.097Z,78.10
2018-03-25T02:54:01.716Z,78.20
2018-03-25T02:56:29.482Z,78.00
2018-03-25T02:58:57.097Z,77.80
2018-03-25T03:01:24.747Z,77.60
2018-03-25T03:03:52.450Z,77.20
2018-03-25T03:06:20.096Z,77.10
2018-03-25T03:08:47.831Z,77.30
2018-03-25T03:11:15.472Z,77.50
2018-03-25T03:13:43.167Z,77.70
2018-03-25T03:16:10.777Z,77.50
2018-03-25T03:18:38.493Z,77.60
2018-03-25T03:21:06.222Z,78.10
2018-03-25T03:23:34.327Z,78.50
2018-03-25T03:26:01.916Z,78.80
2018-03-25T03:28:29.533Z,79.30
2018-03-25T03:30:58.154Z,80.10
2018-03-25T03:33:25.807Z,79.60
2018-03-25T03:35:53.433Z,79.40
2018-03-25T03:38:20.991Z,79.20
2018-03-25T03:40:48.983Z,79.10
2018-03-25T03:43:17.359Z,78.50
2018-03-25T03:45:44.968Z,78.40
2018-03-25T03:48:12.620Z,77.40
2018-03-25T03:50:40.994Z,77.60
2018-03-25T03:53:09.380Z,77.70
2018-03-25T03:55:36.998Z,77.60
2018-03-25T03:58:04.971Z,77.70
2018-03-25T04:00:32.594Z,77.70
2018-03-25T04:03:00.975Z,77.60
2018-03-25T04:05:29.368Z,77.60
2018-03-25T04:07:57.030Z,77.60
2018-03-25T04:10:24.672Z,77.50
2018-03-25T04:12:52.362Z,77.80
2018-03-25T04:15:20.284Z,78.10
2018-03-25T04:17:47.920Z,78.00
2018-03-25T04:20:15.514Z,78.50
2018-03-25T04:22:43.152Z,78.20
2018-03-25T04:25:10.777Z,77.70
2018-03-25T04:27:38.709Z,77.40
2018-03-25T04:30:06.356Z,77.80
2018-03-25T04:32:33.975Z,78.30
2018-03-25T04:35:02.367Z,79.30
2018-03-25T04:37:30.741Z,79.10
2018-03-25T04:39:58.374Z,79.00
2018-03-25T04:42:26.091Z,79.40
2018-03-25T04:44:54.491Z,79.30
2018-03-25T04:47:22.153Z,79.20
2018-03-25T04:49:49.877Z,79.10
2018-03-25T04:52:17.539Z,78.90
2018-03-25T04:54:45.139Z,78.60
2018-03-25T04:57:13.573Z,78.20
2018-03-25T04:59:41.201Z,78.20
2018-03-25T05:02:09.571Z,78.60
2018-03-25T05:04:37.993Z,79.20
2018-03-25T05:07:05.595Z,78.60
2018-03-25T05:09:33.285Z,78.70
2018-03-25T05:12:01.671Z,79.10
2018-03-25T05:14:29.303Z,79.00
2018-03-25T05:16:56.902Z,79.10
2018-03-25T05:19:24.526Z,78.90
2018-03-25T05:21:52.180Z,78.60
2018-03-25T05:24:20.550Z,78.50
2018-03-25T05:26:48.166Z,78.50
2018-03-25T05:29:15.780Z,79.40
2018-03-25T05:31:43.427Z,79.70
2018-03-25T05:34:11.861Z,80.30
2018-03-25T05:36:39.438Z,80.30
2018-03-25T05:39:07.112Z,80.00
2018-03-25T05:41:34.723Z,79.30
2018-03-25T05:44:02.740Z,79.10
2018-03-25T05:46:30.342Z,78.50
2018-03-25T05:48:58.744Z,77.40
2018-03-25T05:51:26.371Z,77.40
2018-03-25T05:53:54.772Z,77.40
2018-03-25T05:56:22.392Z,77.40
2018-03-25T05:58:50.243Z,77.60
2018-03-25T06:01:17.903Z,77.70
2018-03-25T06:03:45.506Z,77.90
2018-03-25T06:06:13.156Z,78.20
2018-03-25T06:08:40.992Z,79.10
2018-03-25T06:11:09.453Z,78.50
2018-03-25T06:13:37.081Z,78.50
2018-03-25T06:16:04.845Z,78.40
2018-03-25T06:18:32.501Z,77.90
2018-03-25T06:21:00.978Z,78.00
2018-03-25T06:23:28.613Z,78.00
2018-03-25T06:25:56.280Z,77.90
2018-03-25T06:28:23.951Z,78.20
2018-03-25T06:30:52.310Z,78.30
2018-03-25T06:33:20.847Z,78.30
2018-03-25T06:35:48.960Z,78.00
2018-03-25T06:38:16.671Z,77.70
2018-03-25T06:40:44.339Z,77.60
2018-03-25T06:43:12.752Z,77.40
2018-03-25T06:45:40.513Z,77.40
2018-03-25T06:48:08.232Z,76.90
2018-03-25T06:50:35.889Z,76.80
2018-03-25T06:53:03.486Z,77.00
2018-03-25T06:55:31.888Z,77.10
2018-03-25T06:57:59.511Z,76.50
2018-03-25T07:00:27.179Z,75.60
2018-03-25T07:02:54.803Z,74.50
2018-03-25T07:05:22.523Z,72.80
2018-03-25T07:07:50.198Z,72.30
2018-03-25T07:10:17.848Z,73.20
2018-03-25T07:12:45.548Z,69.70
2018-03-25T07:15:13.182Z,69.40
2018-03-25T07:17:41.885Z,68.20
2018-03-25T07:20:09.504Z,68.20
2018-03-25T07:22:37.173Z,67.00
2018-03-25T07:25:04.830Z,67.30
2018-03-25T07:27:32.490Z,65.30
2018-03-25T07:30:00.130Z,67.10
2018-03-25T07:32:28.508Z,64.20
2018-03-25T07:34:56.183Z,64.10
2018-03-25T07:37:24.564Z,64.90
2018-03-25T07:39:52.938Z,67.10
2018-03-25T07:42:21.339Z,65.30
2018-03-25T07:44:49.733Z,64.00
2018-03-25T07:47:17.412Z,64.00
2018-03-25T07:49:45.796Z,63.80
2018-03-25T07:52:13.471Z,63.80
2018-03-25T07:54:41.104Z,64.00
2018-03-25T07:57:09.481Z,63.40
2018-03-25T07:59:37.975Z,61.90
2018-03-25T08:02:06.350Z,62.30
2018-03-25T08:04:34.748Z,61.80
2018-03-25T08:07:02.371Z,61.70
2018-03-25T08:09:30.065Z,59.90
2018-03-25T08:11:58.437Z,60.60
2018-03-25T08:14:26.057Z,60.60
2018-03-25T08:16:53.865Z,60.10
2018-03-25T08:19:21.519Z,61.00
2018-03-25T08:21:49.135Z,59.30
2018-03-25T08:24:16.761Z,57.10
2018-03-25T08:26:44.702Z,57.10
2018-03-25T08:29:12.309Z,56.90
2018-03-25T08:31:39.914Z,57.00
2018-03-25T08:34:07.574Z,54.90
2018-03-25T08:36:35.185Z,54.80
2018-03-25T08:39:02.838Z,54.90
2018-03-25T08:41:30.447Z,53.60
2018-03-25T08:43:59.128Z,52.00
2018-03-25T08:46:26.802Z,51.40
2018-03-25T08:48:54.425Z,51.00
2018-03-25T08:51:22.277Z,49.30
2018-03-25T08:53:49.918Z,51.40
2018-03-25T08:56:18.338Z,48.00
2018-03-25T08:58:45.960Z,47.80
2018-03-25T09:01:14.342Z,44.40
2018-03-25T09:03:42.778Z,45.50
2018-03-25T09:06:10.378Z,45.50
2018-03-25T09:08:38.182Z,44.60
2018-03-25T09:11:05.943Z,45.80
2018-03-25T09:13:34.348Z,44.60
2018-03-25T09:16:02.004Z,44.70
2018-03-25T09:18:29.716Z,44.00
2018-03-25T09:20:57.400Z,45.70
2018-03-25T09:23:25.029Z,46.10
2018-03-25T09:25:52.663Z,45.00
2018-03-25T09:28:21.173Z,44.20
2018-03-25T09:30:48.791Z,44.10
2018-03-25T09:33:16.657Z,42.90
2018-03-25T09:35:44.261Z,44.80
2018-03-25T09:38:11.931Z,44.50
2018-03-25T09:40:39.576Z,44.00
2018-03-25T09:43:07.972Z,43.80
2018-03-25T09:45:36.397Z,41.30
2018-03-25T09:48:04.026Z,41.30
2018-03-25T09:50:32.434Z,44.30
2018-03-25T09:53:00.054Z,44.20
2018-03-25T09:55:27.861Z,42.10
2018-03-25T09:57:55.503Z,40.70
2018-03-25T10:00:30.172Z,38.00
2018-03-25T10:02:59.569Z,38.10
2018-03-25T10:05:27.245Z,38.80
2018-03-25T10:07:54.898Z,36.80
2018-03-25T10:10:22.518Z,35.10
2018-03-25T10:12:50.279Z,33.90
2018-03-25T10:15:17.912Z,35.00
2018-03-25T10:17:46.289Z,34.70
2018-03-25T10:20:13.925Z,34.60
2018-03-25T10:22:41.562Z,35.60
2018-03-25T10:25:09.468Z,32.50
2018-03-25T10:27:37.090Z,31.80
2018-03-25T10:30:04.714Z,32.10
2018-03-25T10:32:32.359Z,31.30
2018-03-25T10:35:00.737Z,31.80
2018-03-25T10:37:29.188Z,30.70
2018-03-25T10:39:56.820Z,30.70
2018-03-25T10:42:24.443Z,31.10
2018-03-25T10:44:52.064Z,30.80
2018-03-25T10:47:20.444Z,30.30
2018-03-25T10:49:48.262Z,30.30
2018-03-25T10:52:16.676Z,29.60
2018-03-25T10:54:44.329Z,29.60
2018-03-25T10:57:12.713Z,28.20
2018-03-25T10:59:41.218Z,28.40
2018-03-25T11:02:08.879Z,27.90
2018-03-25T11:04:36.562Z,29.90
2018-03-25T11:07:04.997Z,29.30
2018-03-25T11:09:33.414Z,29.10
2018-03-25T11:12:01.078Z,28.90
2018-03-25T11:14:29.490Z,29.90
2018-03-25T11:16:57.110Z,30.00
2018-03-25T11:19:25.634Z,35.50
2018-03-25T11:21:53.239Z,35.50
2018-03-25T11:24:20.860Z,33.00
2018-03-25T11:26:48.490Z,33.30
2018-03-25T11:29:16.867Z,31.90
2018-03-25T11:31:44.606Z,31.80
2018-03-25T11:34:12.217Z,34.00
2018-03-25T11:36:40.630Z,35.50
2018-03-25T11:39:08.247Z,35.40
2018-03-25T11:41:35.902Z,36.50
2018-03-25T11:44:09.073Z,35.20
2018-03-25T11:46:36.950Z,35.20
2018-03-25T11:49:04.572Z,32.20
2018-03-25T11:51:32.198Z,28.60
2018-03-25T11:53:59.858Z,29.50
2018-03-25T11:56:27.600Z,28.60
2018-03-25T11:58:55.221Z,28.40
2018-03-25T12:01:23.628Z,28.40
2018-03-25T12:03:51.268Z,28.30
2018-03-25T12:06:19.685Z,29.60
2018-03-25T12:08:47.308Z,29.50
2018-03-25T12:11:15.266Z,29.70
2018-03-25T12:13:42.912Z,28.60
2018-03-25T12:16:10.534Z,30.00
2018-03-25T12:18:38.950Z,29.20
2018-03-25T12:21:06.609Z,29.20
2018-03-25T12:23:34.198Z,28.40
2018-03-25T12:26:01.814Z,29.30
2018-03-25T12:28:30.476Z,27.50
2018-03-25T12:30:58.161Z,27.40
2018-03-25T12:33:25.811Z,27.20
2018-03-25T12:35:53.445Z,27.10
2018-03-25T12:38:21.063Z,28.20
2018-03-25T12:40:49.531Z,29.30
2018-03-25T12:43:17.191Z,29.40
2018-03-25T12:45:45.109Z,28.00
2018-03-25T12:48:12.735Z,29.20
2018-03-25T12:50:40.341Z,27.80
2018-03-25T12:53:08.014Z,27.90
2018-03-25T12:55:35.658Z,28.00
2018-03-25T12:58:04.090Z,27.20
2018-03-25T13:00:31.819Z,27.20
2018-03-25T13:03:00.240Z,29.00
2018-03-25T13:05:27.950Z,29.00
2018-03-25T13:07:55.570Z,29.90
2018-03-25T13:10:23.247Z,28.50
2018-03-25T13:12:50.875Z,29.40
2018-03-25T13:15:18.503Z,28.70
2018-03-25T13:17:46.124Z,28.90
2018-03-25T13:20:13.910Z,29.00
2018-03-25T13:22:41.541Z,28.30
2018-03-25T13:25:09.165Z,28.90
2018-03-25T13:27:37.582Z,29.70
2018-03-25T13:30:05.958Z,29.00
2018-03-25T13:32:34.356Z,28.10
2018-03-25T13:35:02.869Z,28.20
2018-03-25T13:37:31.715Z,28.20
2018-03-25T13:40:00.126Z,28.10
2018-03-25T13:42:27.783Z,28.00
2018-03-25T13:44:56.188Z,27.80
2018-03-25T13:47:23.852Z,27.90
2018-03-25T13:49:51.530Z,27.00
2018-03-25T13:52:19.146Z,28.20
2018-03-25T13:54:46.794Z,28.30
2018-03-25T13:57:14.406Z,27.50
2018-03-25T13:59:42.086Z,27.20
2018-03-25T14:02:09.728Z,28.40
2018-03-25T14:04:38.182Z,27.40
2018-03-25T14:07:05.845Z,27.30
2018-03-25T14:09:33.465Z,27.70
2018-03-25T14:12:01.368Z,28.30
2018-03-25T14:14:28.993Z,29.00
2018-03-25T14:16:56.619Z,29.00
2018-03-25T14:19:24.257Z,28.20
2018-03-25T14:21:51.875Z,28.40
2018-03-25T14:24:20.363Z,30.00
2018-03-25T14:26:48.742Z,29.70
2018-03-25T14:29:17.851Z,29.70
2018-03-25T14:31:46.245Z,29.10
2018-03-25T14:34:13.875Z,29.00
2018-03-25T14:36:41.549Z,28.30
2018-03-25T14:39:09.157Z,27.70
2018-03-25T14:41:36.778Z,27.30
2018-03-25T14:44:05.148Z,27.80
2018-03-25T14:46:32.796Z,27.70
2018-03-25T14:49:00.427Z,27.80
2018-03-25T14:51:28.206Z,28.40
2018-03-25T14:53:55.936Z,27.90
2018-03-25T14:56:23.612Z,28.20
2018-03-25T14:58:52.026Z,28.60
2018-03-25T15:01:19.638Z,28.50
2018-03-25T15:03:47.287Z,29.00
2018-03-25T15:06:14.905Z,28.70
2018-03-25T15:08:43.278Z,29.80
2018-03-25T15:11:11.764Z,30.30
2018-03-25T15:13:40.171Z,31.10
2018-03-25T15:16:07.801Z,31.10
2018-03-25T15:18:35.447Z,31.60
2018-03-25T15:21:03.136Z,31.90
2018-03-25T15:23:31.581Z,30.80
2018-03-25T15:25:59.299Z,30.70
2018-03-25T15:28:26.950Z,30.10
2018-03-25T15:30:54.605Z,31.20
2018-03-25T15:33:22.320Z,31.20
2018-03-25T15:35:49.961Z,31.50
2018-03-25T15:38:18.391Z,31.70
2018-03-25T15:40:46.060Z,31.70
2018-03-25T15:43:13.723Z,32.10
2018-03-25T15:45:42.164Z,32.00
2018-03-25T15:48:10.587Z,32.70
2018-03-25T15:50:38.389Z,32.60
2018-03-25T15:53:06.086Z,32.80
2018-03-25T15:55:34.537Z,33.40
2018-03-25T15:58:02.183Z,33.30
2018-03-25T16:00:29.981Z,33.40
2018-03-25T16:02:57.675Z,33.20
2018-03-25T16:05:26.094Z,33.40
2018-03-25T16:07:53.816Z,33.30
2018-03-25T16:10:21.506Z,33.10
2018-03-25T16:12:49.950Z,33.30
2018-03-25T16:15:17.588Z,33.30
2018-03-25T16:17:46.040Z,32.50
2018-03-25T16:20:13.806Z,32.30
2018-03-25T16:22:42.273Z,32.30
2018-03-25T16:25:10.739Z,33.00
2018-03-25T16:27:38.419Z,32.90
2018-03-25T16:30:07.105Z,33.80
2018-03-25T16:32:34.750Z,33.80
2018-03-25T16:35:02.417Z,33.40
2018-03-25T16:37:30.192Z,33.20
2018-03-25T16:39:57.887Z,33.70
2018-03-25T16:42:25.557Z,35.00
2018-03-25T16:44:53.196Z,35.20
2018-03-25T16:47:21.185Z,36.20
2018-03-25T16:49:48.857Z,35.80
2018-03-25T16:52:16.501Z,36.40
2018-03-25T16:54:44.207Z,36.40
2018-03-25T16:57:11.798Z,36.60
2018-03-25T16:59:39.768Z,37.30
2018-03-25T17:02:07.380Z,37.50
2018-03-25T17:04:35.027Z,38.10
2018-03-25T17:07:02.698Z,38.70
2018-03-25T17:09:30.350Z,38.70
2018-03-25T17:11:58.832Z,39.60
2018-03-25T17:14:26.526Z,39.60
2018-03-25T17:16:54.246Z,40.10
2018-03-25T17:19:22.672Z,41.10
2018-03-25T17:21:50.334Z,41.10
2018-03-25T17:24:18.016Z,42.40
2018-03-25T17:26:45.756Z,42.30
2018-03-25T17:29:13.735Z,42.40
2018-03-25T17:31:41.398Z,43.50
2018-03-25T17:34:09.042Z,43.90
2018-03-25T17:36:37.524Z,43.80
2018-03-25T17:39:05.224Z,43.70
2018-03-25T17:41:32.915Z,44.00
2018-03-25T17:44:00.642Z,44.00
2018-03-25T17:46:28.389Z,44.40
2018-03-25T17:48:56.880Z,44.90
2018-03-25T17:51:24.586Z,44.80
2018-03-25T17:53:52.286Z,44.30
2018-03-25T17:56:19.956Z,46.50
2018-03-25T17:58:47.681Z,45.00
2018-03-25T18:01:15.348Z,44.90
2018-03-25T18:03:43.319Z,44.20
2018-03-25T18:06:10.987Z,44.20
2018-03-25T18:08:38.767Z,44.50
2018-03-25T18:11:06.445Z,45.10
2018-03-25T18:13:34.171Z,45.20
2018-03-25T18:16:02.587Z,45.20
2018-03-25T18:18:30.523Z,45.70
2018-03-25T18:20:59.052Z,46.50
2018-03-25T18:23:26.918Z,46.40
2018-03-25T18:25:54.727Z,46.50
2018-03-25T18:28:22.558Z,47.70
2018-03-25T18:30:50.640Z,48.10
2018-03-25T18:33:18.674Z,48.40
2018-03-25T18:35:48.002Z,49.20
2018-03-25T18:38:15.783Z,49.10
2018-03-25T18:40:43.728Z,49.80
2018-03-25T18:43:12.493Z,50.10
2018-03-25T18:48:02.981Z,50.50
2018-03-25T18:50:31.018Z,50.50
2018-03-25T18:52:59.514Z,50.70
2018-03-25T18:55:27.539Z,50.70
2018-03-25T18:57:55.422Z,51.20
2018-03-25T19:00:23.388Z,51.60
2018-03-25T19:02:51.337Z,51.90
2018-03-25T19:05:19.284Z,52.00
2018-03-25T19:07:47.082Z,52.20
2018-03-25T19:10:14.880Z,52.20
2018-03-25T19:12:42.962Z,52.30
2018-03-25T19:15:11.751Z,52.40
2018-03-25T19:17:39.647Z,52.60
2018-03-25T19:20:09.429Z,53.80
2018-03-25T19:22:37.441Z,53.80
2018-03-25T19:25:06.192Z,54.40
2018-03-25T19:27:34.242Z,54.40
2018-03-25T19:30:02.939Z,54.40
2018-03-25T19:32:30.692Z,54.10
2018-03-25T19:34:58.994Z,54.20
2018-03-25T19:37:26.876Z,54.20
2018-03-25T19:39:54.791Z,54.50
2018-03-25T19:42:23.526Z,54.90
2018-03-25T19:44:51.648Z,54.90
2018-03-25T19:47:20.268Z,55.50
2018-03-25T19:49:49.591Z,56.00
2018-03-25T19:52:17.573Z,55.80
2018-03-25T19:54:46.321Z,56.40
2018-03-25T19:57:15.278Z,56.50
2018-03-25T19:59:44.662Z,56.90
2018-03-25T20:02:12.557Z,57.00
2018-03-25T20:04:41.206Z,56.60
2018-03-25T20:07:09.010Z,57.20
2018-03-25T20:09:36.852Z,56.90
2018-03-25T20:12:04.649Z,56.70
2018-03-25T20:14:32.512Z,57.60
2018-03-25T20:17:00.479Z,57.00
2018-03-25T20:19:28.227Z,57.20
2018-03-25T20:21:56.005Z,57.40
2018-03-25T20:24:23.766Z,57.30
2018-03-25T20:26:51.556Z,57.20
2018-03-25T20:29:20.193Z,58.30
2018-03-25T20:31:48.710Z,58.20
2018-03-25T20:34:16.489Z,58.10
2018-03-25T20:36:44.987Z,58.60
2018-03-25T20:39:12.692Z,58.60
2018-03-25T20:41:40.418Z,59.50
2018-03-25T20:44:08.339Z,59.40
2018-03-25T20:46:36.765Z,59.20
2018-03-25T20:49:04.471Z,59.10
2018-03-25T20:51:33.738Z,59.00
2018-03-25T20:54:01.400Z,59.00
2018-03-25T20:56:29.112Z,59.50
2018-03-25T20:58:56.840Z,59.80
2018-03-25T21:01:24.550Z,59.80
2018-03-25T21:03:52.280Z,60.50
2018-03-25T21:06:19.984Z,61.00
2018-03-25T21:08:48.024Z,61.20
2018-03-25T21:11:15.772Z,61.30
2018-03-25T21:13:43.427Z,61.40
2018-03-25T21:16:11.849Z,61.70
2018-03-25T21:18:39.594Z,61.70
2018-03-25T21:21:07.270Z,61.80
2018-03-25T21:23:34.962Z,62.60
2018-03-25T21:26:02.682Z,63.20
2018-03-25T21:28:31.145Z,63.30
2018-03-25T21:30:58.832Z,63.30
2018-03-25T21:33:27.219Z,62.80
2018-03-25T21:35:55.675Z,62.80
2018-03-25T21:38:24.992Z,63.20
2018-03-25T21:40:54.136Z,62.80
2018-03-25T21:43:21.780Z,62.80
2018-03-25T21:45:50.157Z,62.70
2018-03-25T21:48:18.771Z,62.70
2018-03-25T21:50:46.366Z,62.60
2018-03-25T21:53:14.045Z,62.50
2018-03-25T21:55:41.681Z,62.60
2018-03-25T21:58:09.300Z,62.40
2018-03-25T22:00:36.930Z,62.10
2018-03-25T22:03:06.274Z,62.40
2018-03-25T22:05:34.669Z,63.00
2018-03-25T22:08:03.050Z,62.80
2018-03-25T22:10:31.467Z,62.80
2018-03-25T22:12:59.262Z,62.80
2018-03-25T22:15:26.902Z,62.70
2018-03-25T22:17:54.516Z,62.50
2018-03-25T22:20:22.948Z,63.10
2018-03-25T22:22:50.566Z,63.00
2018-03-25T22:25:18.196Z,63.20
2018-03-25T22:27:45.854Z,63.40
2018-03-25T22:30:13.458Z,63.30
2018-03-25T22:32:42.580Z,64.00
2018-03-25T22:35:10.971Z,64.50
2018-03-25T22:37:39.338Z,64.30
2018-03-25T22:40:06.990Z,64.20
2018-03-25T22:42:35.383Z,64.20
2018-03-25T22:45:03.318Z,64.20
2018-03-25T22:47:30.914Z,64.50
2018-03-25T22:50:00.028Z,65.10
2018-03-25T22:52:28.410Z,65.20
2018-03-25T22:54:56.011Z,65.10
2018-03-25T22:57:23.655Z,65.00
2018-03-25T22:59:51.279Z,65.30
2018-03-25T23:02:18.896Z,65.20
2018-03-25T23:04:46.512Z,65.40
2018-03-25T23:07:14.140Z,65.40
2018-03-25T23:09:41.772Z,65.40
2018-03-25T23:12:10.152Z,65.70
2018-03-25T23:14:38.524Z,66.00
2018-03-25T23:17:06.153Z,65.90
2018-03-25T23:19:33.774Z,65.90
2018-03-25T23:22:02.168Z,66.60
2018-03-25T23:24:30.570Z,66.80
2018-03-25T23:26:58.572Z,66.80
2018-03-25T23:29:26.167Z,67.30
2018-03-25T23:31:53.760Z,67.10
2018-03-25T23:34:21.424Z,67.20
2018-03-25T23:36:49.791Z,66.60
2018-03-25T23:39:18.220Z,67.10
2018-03-25T23:41:45.819Z,67.10
2018-03-25T23:44:15.296Z,67.10
2018-03-25T23:46:42.909Z,67.00
2018-03-25T23:49:10.518Z,67.10
2018-03-25T23:51:38.163Z,67.40
2018-03-25T23:54:06.524Z,67.40
2018-03-25T23:56:34.415Z,67.40
2018-03-25T23:59:02.755Z,67.40
